Time;durP1;ratioP1;P1;durP2;ratioP2;P2;SDS_P1;SDS_P2;PMS_P1;PMS_P2;Temp;Humidity;BMP_temperature;BMP_pressure;BME280_temperature;BME280_humidity;BME280_pressure;Samples;Min_cycle;Max_cycle;Signal;HPM_P1;HPM_P2
2021/04/11 00:02:02;;;;;;;56.20;28.60;;;;;;;6.59;53.32;98714.98;239587;1202;23273;-72
2021/04/11 00:07:05;;;;;;;55.70;26.70;;;;;;;6.56;53.35;98718.17;239697;1199;23137;-73
2021/04/11 00:12:08;;;;;;;66.95;33.80;;;;;;;6.54;53.55;98720.31;239560;1202;23134;-72
2021/04/11 00:17:10;;;;;;;71.50;37.30;;;;;;;6.48;53.89;98727.48;239739;1200;23136;-72
2021/04/11 00:22:13;;;;;;;72.30;36.05;;;;;;;6.38;53.72;98720.28;239521;1200;23121;-72
2021/04/11 00:27:18;;;;;;;67.53;32.00;;;;;;;6.28;54.50;98721.05;239386;1198;23122;-72
2021/04/11 00:32:21;;;;;;;64.00;31.23;;;;;;;6.21;54.77;98719.67;239521;1199;23135;-72
2021/04/11 00:37:24;;;;;;;67.33;33.50;;;;;;;6.14;55.13;98727.89;239528;1197;23118;-72
2021/04/11 00:42:34;;;;;;;67.35;33.40;;;;;;;6.07;55.03;98719.36;239649;1198;23121;-72
2021/04/11 00:47:38;;;;;;;72.18;34.78;;;;;;;5.97;54.99;98714.77;239482;1199;23121;-72
2021/04/11 00:52:42;;;;;;;71.95;32.50;;;;;;;5.92;55.18;98723.52;239473;1199;23221;-72
2021/04/11 00:57:46;;;;;;;58.23;27.60;;;;;;;5.94;55.42;98720.60;239588;1199;23276;-73
2021/04/11 01:02:50;;;;;;;56.73;25.23;;;;;;;6.03;55.53;98713.77;239635;1200;25247;-73
2021/04/11 01:07:56;;;;;;;67.97;32.00;;;;;;;6.11;55.69;98721.25;239621;1200;23810;-73
2021/04/11 01:13:01;;;;;;;66.90;30.50;;;;;;;6.08;55.82;98721.75;239637;1200;24770;-72
2021/04/11 01:18:05;;;;;;;49.87;25.03;;;;;;;6.03;55.53;98718.27;239651;1200;23199;-72
2021/04/11 01:23:08;;;;;;;43.30;22.80;;;;;;;5.95;55.39;98714.23;239602;1200;23115;-73
2021/04/11 01:28:18;;;;;;;54.00;25.85;;;;;;;5.83;56.01;98711.77;239601;1198;23122;-72
2021/04/11 01:33:25;;;;;;;51.90;24.80;;;;;;;5.69;56.11;98705.33;239424;1200;23122;-73
2021/04/11 01:38:29;;;;;;;52.20;25.80;;;;;;;5.57;56.45;98701.02;239432;1202;25972;-72
2021/04/11 01:43:35;;;;;;;50.05;24.60;;;;;;;5.48;56.92;98698.05;239378;1199;23814;-72
2021/04/11 01:48:39;;;;;;;43.75;23.90;;;;;;;5.40;57.19;98695.05;239546;1200;24776;-73
2021/04/11 01:53:44;;;;;;;46.23;23.77;;;;;;;5.31;57.41;98695.52;239692;1199;23114;-72
2021/04/11 01:58:47;;;;;;;48.43;24.60;;;;;;;5.21;57.55;98700.77;239676;1200;23132;-73
2021/04/11 02:04:02;;;;;;;54.05;25.40;;;;;;;5.13;57.73;98709.20;239883;1199;23249;-72
2021/04/11 02:09:19;;;;;;;52.13;25.33;;;;;;;5.10;58.24;98713.16;239604;1199;23144;-72
2021/04/11 02:14:46;;;;;;;47.75;23.30;;;;;;;5.09;58.38;98700.14;239462;1200;23091;-72
2021/04/11 02:19:53;;;;;;;44.85;21.70;;;;;;;5.09;58.73;98702.80;239697;1200;23837;-71
2021/04/11 02:24:59;;;;;;;45.40;22.85;;;;;;;5.08;58.43;98699.35;239343;1199;23119;-73
2021/04/11 02:30:09;;;;;;;44.50;21.75;;;;;;;5.02;58.75;98684.42;239226;1200;26227;-72
2021/04/11 02:35:15;;;;;;;34.60;17.40;;;;;;;4.95;58.83;98684.66;239367;1200;23124;-73
2021/04/11 02:40:32;;;;;;;34.73;16.30;;;;;;;4.90;58.75;98686.47;239263;1199;23115;-72
2021/04/11 02:45:40;;;;;;;30.50;15.50;;;;;;;4.91;59.37;98680.09;239492;1200;25971;-70
2021/04/11 02:50:44;;;;;;;31.53;15.80;;;;;;;5.03;59.50;98677.27;239562;1200;26323;-73
2021/04/11 02:55:48;;;;;;;26.40;13.90;;;;;;;5.12;59.52;98673.89;239369;1200;23121;-73
2021/04/11 03:01:00;;;;;;;31.70;15.70;;;;;;;5.18;58.73;98677.38;239360;1199;23145;-73
2021/04/11 03:06:10;;;;;;;31.50;17.10;;;;;;;5.22;58.99;98673.16;239415;1199;23115;-71
2021/04/11 03:11:29;;;;;;;33.83;16.43;;;;;;;5.22;59.12;98670.51;239479;1199;23138;-72
2021/04/11 03:16:35;;;;;;;29.05;16.80;;;;;;;5.16;58.71;98657.45;239544;1199;23124;-72
2021/04/11 03:21:42;;;;;;;38.00;18.90;;;;;;;5.09;58.94;98650.52;239434;1201;23141;-72
2021/04/11 03:26:59;;;;;;;33.85;17.00;;;;;;;5.04;58.98;98649.67;239628;1200;25971;-72
2021/04/11 03:32:23;;;;;;;33.30;16.70;;;;;;;5.03;59.56;98658.69;239518;1199;23427;-73
2021/04/11 03:37:30;;;;;;;34.00;17.30;;;;;;;5.04;59.53;98660.30;239826;1198;23115;-72
2021/04/11 03:42:36;;;;;;;34.15;19.85;;;;;;;5.01;59.84;98656.30;239291;1200;23118;-72
2021/04/11 03:48:07;;;;;;;36.70;19.25;;;;;;;4.90;59.98;98652.75;239567;1199;26265;-73
2021/04/11 03:53:17;;;;;;;40.30;21.70;;;;;;;4.73;60.41;98652.89;239551;1200;23087;-72
2021/04/11 03:58:33;;;;;;;33.20;19.03;;;;;;;4.61;60.70;98647.73;239271;1202;23177;-72
2021/04/11 04:03:45;;;;;;;33.60;18.60;;;;;;;4.51;60.98;98642.34;239317;1200;23121;-72
2021/04/11 04:08:48;;;;;;;36.07;17.83;;;;;;;4.44;61.47;98641.75;239447;1200;23118;-74
2021/04/11 04:14:15;;;;;;;29.40;15.90;;;;;;;4.37;61.47;98644.59;239571;1199;23285;-72
2021/04/11 04:19:39;;;;;;;26.75;16.05;;;;;;;4.35;61.95;98643.24;239541;1200;23149;-71
2021/04/11 04:24:57;;;;;;;27.50;15.25;;;;;;;4.37;62.41;98638.50;239390;1199;23127;-72
2021/04/11 04:30:18;;;;;;;30.70;16.53;;;;;;;4.41;62.14;98640.39;239363;1201;23276;-72
2021/04/11 04:35:50;;;;;;;28.35;16.00;;;;;;;4.49;62.50;98633.03;239270;1199;23275;-72
2021/04/11 04:41:10;;;;;;;27.00;13.50;;;;;;;4.62;62.60;98632.63;239216;1199;23125;-72
2021/04/11 04:46:19;;;;;;;32.33;15.70;;;;;;;4.68;62.42;98630.81;239468;1199;23121;-72
2021/04/11 04:52:08;;;;;;;28.40;16.30;;;;;;;4.76;62.35;98636.45;239506;1199;23128;-72
2021/04/11 04:57:25;;;;;;;34.15;17.95;;;;;;;4.88;62.55;98628.33;239595;1200;23104;-72
2021/04/11 05:02:40;;;;;;;31.78;16.45;;;;;;;4.99;62.17;98628.39;239482;1198;23128;-72
2021/04/11 05:08:09;;;;;;;32.05;16.45;;;;;;;5.12;62.44;98628.75;239353;1200;23594;-72
2021/04/11 05:13:22;;;;;;;23.40;14.00;;;;;;;5.34;62.77;98632.33;239667;1199;23130;-73
2021/04/11 05:18:40;;;;;;;23.60;13.45;;;;;;;5.55;62.65;98633.23;239471;1200;23298;-72
2021/04/11 05:24:01;;;;;;;30.53;16.40;;;;;;;5.73;62.45;98622.14;239521;1200;23129;-72
2021/04/11 05:29:25;;;;;;;27.75;15.55;;;;;;;5.86;62.84;98628.83;239578;1199;23250;-72
2021/04/11 05:34:30;;;;;;;27.83;15.73;;;;;;;6.01;62.85;98632.65;239675;1200;23135;-72
2021/04/11 05:40:03;;;;;;;28.47;16.60;;;;;;;6.18;63.01;98625.23;239499;1200;23122;-73
2021/04/11 05:45:43;;;;;;;29.67;15.27;;;;;;;6.41;63.84;98633.78;239733;1198;23185;-72
2021/04/11 05:51:00;;;;;;;26.20;15.20;;;;;;;6.70;63.61;98635.95;239695;1199;23130;-73
2021/04/11 05:56:11;;;;;;;22.20;13.25;;;;;;;6.95;63.63;98632.48;239862;1199;23087;-73
2021/04/11 06:01:22;;;;;;;25.43;14.13;;;;;;;7.25;63.87;98631.64;239682;1199;26243;-72
2021/04/11 06:06:30;;;;;;;19.77;12.13;;;;;;;7.66;64.05;98628.85;239993;1199;23123;-72
2021/04/11 06:11:54;;;;;;;23.07;13.63;;;;;;;7.98;63.06;98640.20;239692;1199;23571;-73
2021/04/11 06:16:57;;;;;;;23.27;13.27;;;;;;;8.29;62.34;98643.49;239635;1199;23274;-73
2021/04/11 06:22:09;;;;;;;22.57;12.83;;;;;;;8.63;62.46;98625.95;239604;1197;24869;-72
2021/04/11 06:27:23;;;;;;;19.75;12.35;;;;;;;8.97;62.41;98620.60;239640;1200;23227;-74
2021/04/11 06:32:31;;;;;;;16.05;11.10;;;;;;;9.32;62.64;98615.98;239638;1200;23121;-73
2021/04/11 06:37:37;;;;;;;11.60;6.80;;;;;;;9.74;61.40;98621.67;239546;1199;23119;-73
2021/04/11 06:43:07;;;;;;;7.85;4.90;;;;;;;10.28;59.16;98617.74;239528;1200;23222;-73
2021/04/11 06:48:22;;;;;;;11.17;5.10;;;;;;;10.83;57.45;98611.03;239740;1199;23289;-72
2021/04/11 06:53:43;;;;;;;9.30;4.50;;;;;;;11.27;56.17;98614.28;239424;1200;23272;-72
2021/04/11 06:58:55;;;;;;;5.50;4.30;;;;;;;11.67;54.93;98611.91;239281;1200;23125;-75
2021/04/11 07:04:25;;;;;;;6.85;3.90;;;;;;;12.02;53.65;98614.98;239668;1200;23125;-73
2021/04/11 07:10:09;;;;;;;6.35;3.60;;;;;;;12.37;52.45;98604.55;239686;1199;23307;-72
2021/04/11 07:15:25;;;;;;;8.70;3.90;;;;;;;12.68;51.35;98586.91;239210;1198;23154;-72
2021/04/11 07:20:55;;;;;;;5.20;3.20;;;;;;;12.96;50.11;98590.23;239598;1199;23125;-73
2021/04/11 07:26:10;;;;;;;4.90;3.00;;;;;;;13.28;48.87;98599.08;239488;1197;23147;-73
2021/04/11 07:31:21;;;;;;;5.70;2.60;;;;;;;13.55;47.55;98592.70;239413;1199;23141;-73
2021/04/11 07:36:51;;;;;;;4.60;3.20;;;;;;;13.79;47.38;98605.73;239545;1200;23133;-72
2021/04/11 07:42:18;;;;;;;3.60;2.60;;;;;;;14.03;46.37;98609.90;239377;1200;23129;-73
2021/04/11 07:47:44;;;;;;;3.57;2.07;;;;;;;14.28;45.11;98600.25;239564;1198;23145;-73
2021/04/11 07:53:05;;;;;;;2.95;1.90;;;;;;;14.52;44.09;98605.18;239760;1200;23122;-72
2021/04/11 07:58:19;;;;;;;4.70;1.75;;;;;;;14.72;43.19;98592.18;239538;1198;23169;-72
2021/04/11 08:03:33;;;;;;;7.60;1.80;;;;;;;14.91;41.27;98594.50;239478;1198;23120;-72
2021/04/11 08:08:48;;;;;;;3.00;1.50;;;;;;;15.08;41.31;98590.17;239470;1199;23145;-72
2021/04/11 08:14:04;;;;;;;3.93;1.60;;;;;;;15.26;41.58;98585.52;239481;1199;23113;-73
2021/04/11 08:19:26;;;;;;;1.60;1.30;;;;;;;15.43;40.82;98588.15;239579;1202;23137;-75
2021/04/11 08:24:50;;;;;;;2.70;1.30;;;;;;;15.57;40.34;98587.89;239565;1200;23128;-73
2021/04/11 08:30:30;;;;;;;4.15;1.65;;;;;;;15.80;39.98;98583.04;239478;1199;23157;-73
2021/04/11 08:36:06;;;;;;;2.10;1.25;;;;;;;15.99;39.51;98579.91;239547;1199;23128;-74
2021/04/11 08:41:17;;;;;;;3.60;1.50;;;;;;;16.14;39.33;98593.94;239631;1199;23122;-72
2021/04/11 08:46:40;;;;;;;3.50;1.40;;;;;;;16.20;39.06;98603.41;239611;1199;23103;-73
2021/04/11 08:52:41;;;;;;;1.80;1.30;;;;;;;16.30;38.15;98594.12;239294;1199;23289;-72
2021/04/11 08:58:07;;;;;;;2.75;1.35;;;;;;;16.38;38.31;98601.37;238865;1203;23244;-72
2021/04/11 09:03:46;;;;;;;3.20;1.70;;;;;;;16.41;38.50;98600.70;239345;1198;23110;-73
2021/04/11 09:09:18;;;;;;;4.45;1.40;;;;;;;16.41;38.57;98615.03;239446;1200;23137;-72
2021/04/11 09:14:39;;;;;;;4.45;1.70;;;;;;;16.49;38.92;98607.95;239388;1199;23112;-73
2021/04/11 09:20:10;;;;;;;4.60;1.90;;;;;;;16.52;38.46;98611.91;239182;1199;23110;-73
2021/04/11 09:25:25;;;;;;;1.80;1.40;;;;;;;16.51;38.74;98608.42;239401;1199;23110;-73
2021/04/11 09:30:34;;;;;;;4.30;1.60;;;;;;;16.57;39.17;98606.30;239388;1197;23112;-72
2021/04/11 09:36:08;;;;;;;1.80;1.30;;;;;;;16.71;39.30;98598.69;239429;1200;23122;-73
2021/04/11 09:41:29;;;;;;;4.50;2.00;;;;;;;16.90;39.95;98610.94;239597;1199;23144;-73
2021/04/11 09:47:08;;;;;;;4.60;1.75;;;;;;;17.27;40.10;98617.21;239451;1200;23118;-73
2021/04/11 09:52:33;;;;;;;2.03;1.40;;;;;;;17.60;39.32;98605.50;239350;1199;26290;-72
2021/04/11 09:58:14;;;;;;;3.17;1.30;;;;;;;17.82;38.50;98586.41;239509;1200;23137;-72
2021/04/11 10:03:41;;;;;;;3.60;1.53;;;;;;;17.81;38.84;98582.92;239367;1198;23141;-73
2021/04/11 10:09:02;;;;;;;2.80;1.43;;;;;;;17.96;38.39;98584.15;239512;1199;23172;-73
2021/04/11 10:14:14;;;;;;;2.90;1.10;;;;;;;18.17;39.03;98577.78;239564;1199;23125;-73
2021/04/11 10:19:28;;;;;;;4.40;1.40;;;;;;;18.39;38.81;98590.03;239401;1199;24309;-72
2021/04/11 10:24:51;;;;;;;3.90;1.20;;;;;;;18.44;37.32;98577.02;239495;1199;23108;-73
2021/04/11 10:29:56;;;;;;;6.40;1.30;;;;;;;18.18;36.17;98588.28;239483;1199;24580;-73
2021/04/11 10:35:23;;;;;;;3.40;1.50;;;;;;;17.85;37.98;98594.66;239271;1200;26018;-72
2021/04/11 10:40:53;;;;;;;2.70;1.55;;;;;;;17.70;38.52;98592.65;239580;1200;23151;-73
2021/04/11 10:46:05;;;;;;;2.13;1.30;;;;;;;17.67;39.36;98593.30;239317;1203;23133;-73
2021/04/11 10:51:12;;;;;;;3.20;1.50;;;;;;;17.93;39.30;98588.33;239354;1200;23140;-73
2021/04/11 10:56:15;;;;;;;2.90;1.10;;;;;;;17.98;39.48;98589.23;239569;1200;23318;-73
2021/04/11 11:01:45;;;;;;;2.30;1.10;;;;;;;17.82;39.07;98579.06;239460;1202;23135;-73
2021/04/11 11:07:11;;;;;;;2.00;1.30;;;;;;;17.58;39.28;98593.42;239430;1199;23141;-73
2021/04/11 11:12:44;;;;;;;3.15;1.20;;;;;;;17.30;39.75;98590.61;239515;1200;23225;-72
2021/04/11 11:18:04;;;;;;;1.47;1.10;;;;;;;17.00;40.09;98582.66;239467;1201;23107;-72
2021/04/11 11:23:34;;;;;;;3.80;1.50;;;;;;;16.81;40.51;98597.47;239544;1200;23122;-73
2021/04/11 11:28:56;;;;;;;2.70;1.30;;;;;;;16.66;40.64;98589.98;239385;1198;23119;-74
2021/04/11 11:34:17;;;;;;;2.00;1.30;;;;;;;16.57;40.77;98592.78;239162;1200;23142;-73
2021/04/11 11:39:26;;;;;;;2.70;1.93;;;;;;;16.74;41.13;98591.82;239360;1199;23144;-73
2021/04/11 11:44:53;;;;;;;2.70;1.65;;;;;;;17.03;41.29;98588.20;239653;1200;23115;-73
2021/04/11 11:50:08;;;;;;;3.00;1.70;;;;;;;17.31;41.03;98595.69;239186;1202;23122;-72
2021/04/11 11:55:14;;;;;;;2.00;1.30;;;;;;;17.52;40.27;98597.50;239421;1201;23116;-72
2021/04/11 12:00:31;;;;;;;1.70;1.20;;;;;;;17.47;40.31;98589.59;239549;1202;23118;-73
2021/04/11 12:06:16;;;;;;;2.45;1.60;;;;;;;17.37;40.40;98586.20;239274;1202;26272;-73
2021/04/11 12:11:53;;;;;;;2.50;1.50;;;;;;;17.33;40.89;98584.52;238954;1203;23153;-72
2021/04/11 12:17:37;;;;;;;2.25;1.60;;;;;;;17.54;40.75;98589.82;239554;1199;23144;-73
2021/04/11 12:23:01;;;;;;;2.35;1.45;;;;;;;17.71;40.52;98578.77;239023;1203;23128;-72
2021/04/11 12:28:12;;;;;;;2.90;1.90;;;;;;;17.79;40.37;98574.33;239313;1198;23177;-74
2021/04/11 12:33:57;;;;;;;3.40;2.00;;;;;;;17.80;39.82;98575.92;239366;1200;23173;-73
2021/04/11 12:39:07;;;;;;;2.95;1.80;;;;;;;17.65;40.18;98565.78;239361;1200;23083;-72
2021/04/11 12:44:16;;;;;;;3.57;1.63;;;;;;;17.67;40.02;98563.51;239502;1202;23144;-72
2021/04/11 12:49:57;;;;;;;2.15;1.60;;;;;;;17.71;39.40;98562.51;239327;1200;23140;-73
2021/04/11 12:55:10;;;;;;;1.50;1.30;;;;;;;17.59;39.89;98554.39;239514;1198;23117;-73
2021/04/11 13:00:22;;;;;;;3.50;2.00;;;;;;;17.61;39.49;98542.09;239464;1199;23124;-73
2021/04/11 13:05:50;;;;;;;1.90;1.40;;;;;;;17.53;39.39;98547.61;239389;1200;23130;-73
2021/04/11 13:10:55;;;;;;;3.00;1.80;;;;;;;17.44;39.54;98534.20;239647;1200;23170;-71
2021/04/11 13:16:06;;;;;;;3.00;1.80;;;;;;;17.38;39.62;98528.22;239477;1199;23100;-72
2021/04/11 13:21:38;;;;;;;3.90;2.10;;;;;;;17.46;40.02;98521.13;239601;1200;23141;-73
2021/04/11 13:26:51;;;;;;;6.90;1.90;;;;;;;17.51;39.48;98526.29;239567;1200;23335;-72
2021/04/11 13:32:04;;;;;;;3.20;1.70;;;;;;;17.55;39.46;98520.99;239361;1200;23130;-72
2021/04/11 13:37:09;;;;;;;2.93;2.00;;;;;;;17.62;39.65;98527.40;239493;1200;23106;-73
2021/04/11 13:42:24;;;;;;;4.00;2.00;;;;;;;17.59;39.52;98519.96;239473;1199;23129;-72
2021/04/11 13:47:33;;;;;;;2.75;1.90;;;;;;;17.64;39.19;98523.56;239436;1200;23308;-73
2021/04/11 13:52:53;;;;;;;4.80;2.30;;;;;;;17.54;39.18;98527.53;239448;1200;23128;-72
2021/04/11 13:58:06;;;;;;;3.50;2.10;;;;;;;17.42;39.54;98529.13;239607;1200;25760;-73
2021/04/11 14:03:24;;;;;;;5.50;2.30;;;;;;;17.12;39.58;98523.14;239538;1200;23144;-73
2021/04/11 14:08:48;;;;;;;2.80;1.80;;;;;;;16.68;40.37;98533.67;239606;1200;23131;-73
2021/04/11 14:14:03;;;;;;;3.73;1.90;;;;;;;16.42;40.71;98535.52;239649;1197;23129;-73
2021/04/11 14:19:17;;;;;;;3.85;1.90;;;;;;;16.26;40.71;98534.55;239443;1200;23117;-73
2021/04/11 14:24:41;;;;;;;3.20;1.80;;;;;;;16.11;41.54;98532.45;239505;1200;23115;-73
2021/04/11 14:29:47;;;;;;;2.80;1.50;;;;;;;15.98;41.62;98531.61;239586;1200;23121;-73
2021/04/11 14:34:52;;;;;;;2.00;1.80;;;;;;;15.82;41.58;98529.50;239556;1200;23125;-73
2021/04/11 14:40:04;;;;;;;4.30;2.20;;;;;;;15.73;41.87;98526.81;239499;1198;23245;-74
2021/04/11 14:45:17;;;;;;;7.40;2.90;;;;;;;15.69;42.01;98527.80;239512;1203;26053;-73
2021/04/11 14:50:33;;;;;;;5.55;2.40;;;;;;;15.70;41.74;98540.20;239464;1197;23137;-72
2021/04/11 14:55:49;;;;;;;4.30;2.15;;;;;;;15.77;41.65;98540.46;239500;1199;23115;-71
2021/04/11 15:01:04;;;;;;;5.05;2.10;;;;;;;15.81;41.53;98541.41;239515;1199;23123;-73
2021/04/11 15:06:11;;;;;;;6.75;3.10;;;;;;;15.78;41.30;98542.05;239456;1200;23563;-72
2021/04/11 15:11:17;;;;;;;5.30;2.75;;;;;;;15.72;41.38;98548.75;239299;1200;23351;-72
2021/04/11 15:16:39;;;;;;;3.25;2.25;;;;;;;15.66;41.01;98550.84;239642;1199;23130;-72
2021/04/11 15:21:51;;;;;;;3.85;2.60;;;;;;;15.60;41.24;98554.06;239638;1202;23087;-71
2021/04/11 15:26:58;;;;;;;5.43;2.90;;;;;;;15.52;41.41;98551.09;239407;1199;23152;-72
2021/04/11 15:32:14;;;;;;;4.85;3.20;;;;;;;15.39;41.53;98549.43;239546;1200;23149;-72
2021/04/11 15:37:40;;;;;;;6.00;2.70;;;;;;;15.26;41.75;98547.73;239526;1200;23139;-72
2021/04/11 15:42:47;;;;;;;5.13;2.87;;;;;;;15.19;42.24;98562.53;239860;1200;23144;-72
2021/04/11 15:48:01;;;;;;;5.85;2.85;;;;;;;15.13;41.94;98546.84;239423;1199;23154;-73
2021/04/11 15:53:12;;;;;;;5.00;3.00;;;;;;;15.13;42.27;98546.84;239558;1199;23240;-73
2021/04/11 15:58:19;;;;;;;4.15;2.70;;;;;;;15.14;42.25;98532.25;239637;1200;23118;-72
2021/04/11 16:03:52;;;;;;;4.50;2.77;;;;;;;15.07;42.17;98540.84;239590;1199;23111;-73
2021/04/11 16:09:16;;;;;;;5.80;2.80;;;;;;;14.92;42.42;98541.38;239455;1202;23130;-73
2021/04/11 16:14:44;;;;;;;7.03;3.50;;;;;;;14.78;43.11;98539.66;239605;1199;23249;-72
2021/04/11 16:20:02;;;;;;;5.40;3.20;;;;;;;14.63;42.96;98532.86;239614;1200;23122;-71
2021/04/11 16:25:26;;;;;;;4.00;2.60;;;;;;;14.53;43.46;98525.88;239652;1199;23128;-72
2021/04/11 16:30:43;;;;;;;5.20;2.40;;;;;;;14.39;43.68;98519.89;239459;1198;24395;-72
2021/04/11 16:36:19;;;;;;;4.07;2.50;;;;;;;14.35;43.99;98522.45;239796;1198;23096;-72
2021/04/11 16:41:28;;;;;;;4.60;2.33;;;;;;;14.28;43.77;98526.72;239780;1199;23131;-73
2021/04/11 16:46:55;;;;;;;5.40;3.10;;;;;;;14.22;44.02;98534.18;239640;1197;23128;-72
2021/04/11 16:52:03;;;;;;;5.15;3.50;;;;;;;14.20;44.24;98555.27;239775;1200;23217;-73
2021/04/11 16:57:35;;;;;;;6.60;3.30;;;;;;;14.17;44.44;98553.19;239686;1200;23204;-73
2021/04/11 17:03:15;;;;;;;6.15;3.20;;;;;;;14.12;44.32;98556.84;239408;1199;23108;-72
2021/04/11 17:08:17;;;;;;;4.50;3.10;;;;;;;14.01;44.47;98560.96;239601;1199;23141;-73
2021/04/11 17:13:49;;;;;;;5.45;3.30;;;;;;;13.85;44.64;98563.30;239816;1199;24517;-72
2021/04/11 17:19:12;;;;;;;7.35;3.70;;;;;;;13.67;44.57;98578.66;239523;1199;23151;-72
2021/04/11 17:24:29;;;;;;;4.40;3.13;;;;;;;13.50;44.95;98582.88;239679;1200;23116;-73
2021/04/11 17:29:39;;;;;;;4.40;3.25;;;;;;;13.32;45.22;98586.59;239565;1199;23172;-72
2021/04/11 17:34:57;;;;;;;4.80;3.00;;;;;;;13.12;45.27;98590.61;239452;1200;23177;-72
2021/04/11 17:40:00;;;;;;;4.65;2.55;;;;;;;12.93;45.58;98602.38;239679;1200;23129;-72
2021/04/11 17:45:29;;;;;;;6.40;2.70;;;;;;;12.72;45.81;98599.41;239506;1200;23289;-73
2021/04/11 17:50:37;;;;;;;5.35;3.15;;;;;;;12.52;46.13;98611.46;239510;1202;23112;-71
2021/04/11 17:56:14;;;;;;;6.30;3.20;;;;;;;12.36;46.57;98608.31;239697;1200;23124;-73
2021/04/11 18:01:33;;;;;;;3.70;3.00;;;;;;;12.22;46.72;98618.31;239587;1197;23119;-72
2021/04/11 18:06:50;;;;;;;4.80;3.50;;;;;;;12.07;46.63;98614.85;239739;1199;23139;-72
2021/04/11 18:12:12;;;;;;;6.43;3.70;;;;;;;11.97;47.22;98628.50;239769;1200;23145;-72
2021/04/11 18:17:51;;;;;;;6.30;3.40;;;;;;;11.92;47.09;98620.52;239628;1200;23118;-73
2021/04/11 18:23:13;;;;;;;7.67;3.73;;;;;;;11.84;47.33;98626.62;239568;1200;23125;-72
2021/04/11 18:28:16;;;;;;;6.55;4.30;;;;;;;11.77;47.39;98635.85;239431;1199;23121;-72
2021/04/11 18:33:45;;;;;;;8.00;4.90;;;;;;;11.73;47.74;98640.23;239599;1198;23251;-73
2021/04/11 18:39:17;;;;;;;6.50;3.60;;;;;;;11.68;47.68;98637.63;239611;1200;23118;-73
2021/04/11 18:44:40;;;;;;;6.30;3.80;;;;;;;11.62;47.80;98639.63;239630;1198;23263;-72
2021/04/11 18:49:56;;;;;;;6.15;3.40;;;;;;;11.59;48.32;98644.80;239718;1199;23139;-72
2021/04/11 18:55:14;;;;;;;6.60;3.85;;;;;;;11.58;48.14;98643.20;239530;1198;23144;-74
2021/04/11 19:00:30;;;;;;;5.85;3.70;;;;;;;11.57;48.46;98646.98;239687;1199;23118;-74
2021/04/11 19:05:51;;;;;;;6.03;4.20;;;;;;;11.53;48.64;98636.06;239631;1199;27582;-72
2021/04/11 19:11:11;;;;;;;6.00;3.90;;;;;;;11.51;49.00;98638.23;239713;1199;23144;-72
2021/04/11 19:16:48;;;;;;;4.95;3.80;;;;;;;11.49;49.24;98645.02;239881;1200;23122;-73
2021/04/11 19:22:10;;;;;;;4.40;3.25;;;;;;;11.45;49.23;98645.58;239794;1199;23190;-72
2021/04/11 19:27:30;;;;;;;5.80;3.90;;;;;;;11.42;49.47;98653.45;239600;1199;23131;-72
2021/04/11 19:32:35;;;;;;;4.87;3.70;;;;;;;11.39;49.60;98651.36;239640;1198;23121;-72
2021/04/11 19:38:09;;;;;;;4.60;3.50;;;;;;;11.35;50.04;98655.72;239689;1198;23118;-72
2021/04/11 19:43:26;;;;;;;5.53;3.67;;;;;;;11.29;50.09;98657.70;239609;1200;23122;-72
2021/04/11 19:48:57;;;;;;;4.00;3.30;;;;;;;11.22;50.40;98658.08;239586;1199;23114;-72
2021/04/11 19:54:21;;;;;;;7.35;3.20;;;;;;;11.17;50.73;98652.02;239750;1200;23118;-73
2021/04/11 19:59:55;;;;;;;4.87;3.23;;;;;;;11.12;50.92;98656.38;239736;1202;23109;-73
2021/04/11 20:05:06;;;;;;;6.50;3.20;;;;;;;11.05;51.13;98642.56;239642;1198;23148;-73
2021/04/11 20:10:10;;;;;;;4.75;3.30;;;;;;;10.96;51.24;98647.00;239495;1199;23166;-73
2021/04/11 20:15:27;;;;;;;5.67;3.77;;;;;;;10.86;51.63;98642.59;239505;1200;23138;-72
2021/04/11 20:20:36;;;;;;;4.47;3.23;;;;;;;10.71;52.05;98635.59;239531;1199;23145;-72
2021/04/11 20:26:13;;;;;;;5.30;3.15;;;;;;;10.59;52.61;98643.28;239616;1199;23097;-71
2021/04/11 20:31:19;;;;;;;4.50;3.55;;;;;;;10.44;52.63;98637.08;239628;1200;23121;-73
2021/04/11 20:36:49;;;;;;;6.40;3.47;;;;;;;10.34;53.12;98634.55;239443;1200;24450;-72
2021/04/11 20:42:22;;;;;;;6.27;3.40;;;;;;;10.21;53.41;98628.02;239406;1200;23122;-72
2021/04/11 20:47:34;;;;;;;7.90;3.90;;;;;;;10.10;53.74;98624.68;239258;1200;23289;-73
2021/04/11 20:53:19;;;;;;;7.87;4.70;;;;;;;10.02;53.95;98628.00;239471;1202;23193;-70
2021/04/11 20:58:40;;;;;;;7.60;4.35;;;;;;;9.97;54.16;98636.08;239406;1200;23134;-72
2021/04/11 21:03:45;;;;;;;6.17;4.43;;;;;;;9.89;54.21;98631.36;239304;1200;23261;-73
2021/04/11 21:09:04;;;;;;;7.60;4.80;;;;;;;9.80;54.77;98630.43;239233;1200;23128;-73
2021/04/11 21:14:13;;;;;;;6.57;4.83;;;;;;;9.73;55.18;98625.42;239330;1200;23125;-72
2021/04/11 21:20:07;;;;;;;6.65;3.70;;;;;;;9.63;54.91;98626.34;239263;1199;24789;-71
2021/04/11 21:25:31;;;;;;;7.90;4.30;;;;;;;9.53;55.57;98637.16;239246;1202;24316;-72
2021/04/11 21:30:52;;;;;;;5.83;4.07;;;;;;;9.45;55.58;98632.44;239393;1200;23253;-72
2021/04/11 21:36:35;;;;;;;6.00;4.27;;;;;;;9.37;55.68;98633.84;239538;1199;23215;-72
2021/04/11 21:41:41;;;;;;;7.00;4.25;;;;;;;9.27;55.89;98626.72;239545;1199;23121;-72
2021/04/11 21:46:59;;;;;;;8.30;5.30;;;;;;;9.14;55.70;98624.73;239268;1200;23125;-72
2021/04/11 21:52:23;;;;;;;10.70;5.60;;;;;;;9.03;56.08;98616.79;239386;1200;23573;-71
2021/04/11 21:57:55;;;;;;;11.50;7.00;;;;;;;8.99;56.34;98607.74;239110;1198;23125;-72
2021/04/11 22:03:19;;;;;;;13.90;7.90;;;;;;;8.98;57.17;98621.39;239231;1199;23103;-73
2021/04/11 22:08:27;;;;;;;20.80;9.60;;;;;;;8.96;56.93;98615.54;239157;1200;23498;-72
2021/04/11 22:13:30;;;;;;;29.90;13.75;;;;;;;8.95;57.14;98609.38;239142;1199;23125;-72
2021/04/11 22:18:54;;;;;;;42.10;19.50;;;;;;;8.85;57.41;98615.61;239420;1199;23295;-73
2021/04/11 22:24:05;;;;;;;31.47;14.57;;;;;;;8.68;57.57;98616.02;239130;1200;23125;-72
2021/04/11 22:29:11;;;;;;;27.77;12.90;;;;;;;8.51;58.21;98607.63;239207;1202;23125;-72
2021/04/11 22:34:41;;;;;;;23.43;11.90;;;;;;;8.39;58.24;98603.41;239202;1200;23144;-72
2021/04/11 22:39:51;;;;;;;28.03;13.07;;;;;;;8.30;58.38;98613.07;239292;1202;23226;-71
2021/04/11 22:45:18;;;;;;;24.60;12.70;;;;;;;8.25;58.48;98610.42;239267;1200;23134;-72
2021/04/11 22:50:42;;;;;;;29.95;16.10;;;;;;;8.18;58.72;98616.09;239221;1198;23095;-71
2021/04/11 22:55:50;;;;;;;27.90;14.60;;;;;;;8.03;59.03;98613.48;239210;1198;23211;-72
2021/04/11 23:00:59;;;;;;;23.27;12.27;;;;;;;7.89;60.11;98605.31;239145;1200;23137;-72
2021/04/11 23:06:06;;;;;;;25.85;13.25;;;;;;;7.78;59.58;98604.55;239483;1199;23107;-72
2021/04/11 23:11:26;;;;;;;21.40;12.20;;;;;;;7.72;60.39;98594.97;239410;1199;23110;-73
2021/04/11 23:16:57;;;;;;;28.80;14.20;;;;;;;7.64;60.75;98593.68;239529;1200;23122;-72
2021/04/11 23:22:10;;;;;;;35.53;15.67;;;;;;;7.61;61.40;98588.91;239384;1200;23141;-72
2021/04/11 23:27:38;;;;;;;39.00;17.55;;;;;;;7.63;61.27;98581.41;239609;1199;25978;-72
2021/04/11 23:32:45;;;;;;;29.63;14.83;;;;;;;7.57;61.48;98582.52;239447;1199;23141;-71
2021/04/11 23:38:01;;;;;;;28.60;15.10;;;;;;;7.43;61.11;98576.16;239338;1199;23122;-72
2021/04/11 23:43:30;;;;;;;30.90;16.30;;;;;;;7.22;61.62;98567.43;239551;1199;23121;-72
2021/04/11 23:48:59;;;;;;;32.87;16.50;;;;;;;7.02;62.14;98575.22;239423;1200;23279;-72
2021/04/11 23:54:23;;;;;;;35.20;16.80;;;;;;;6.90;62.55;98561.39;239430;1199;23124;-72
2021/04/11 23:59:39;;;;;;;31.20;16.90;;;;;;;6.86;62.85;98557.67;239492;1200;23110;-73
